createdAt,value
2022-12-01T00:03:51.300Z,102117.52
2022-12-01T00:09:16.649Z,102111.34
2022-12-01T00:14:23.481Z,102111.96
2022-12-01T00:19:46.605Z,102118.85
2022-12-01T00:24:49.830Z,102119.78
2022-12-01T00:29:52.662Z,102123.03
2022-12-01T00:34:59.315Z,102126.81
2022-12-01T00:40:04.103Z,102123.38
2022-12-01T00:45:07.572Z,102114.21
2022-12-01T00:50:11.018Z,102118.13
2022-12-01T00:55:15.419Z,102110.42
2022-12-01T01:00:19.999Z,102101.14
2022-12-01T01:05:24.117Z,102098.02
2022-12-01T01:10:27.182Z,102094.42
2022-12-01T01:15:31.101Z,102094.54
2022-12-01T01:20:34.150Z,102095.46
2022-12-01T01:25:37.012Z,102091.84
2022-12-01T01:30:40.745Z,102092.79
2022-12-01T01:35:46.195Z,102094.23
2022-12-01T01:40:49.637Z,102094.95
2022-12-01T01:45:52.605Z,102096.20
2022-12-01T01:50:55.525Z,102092.23
2022-12-01T01:55:59.055Z,102093.91
2022-12-01T02:01:03.482Z,102093.27
2022-12-01T02:06:10.659Z,102098.13
2022-12-01T02:11:22.135Z,102098.50
2022-12-01T02:16:52.483Z,102094.34
2022-12-01T02:22:33.951Z,102095.04
2022-12-01T02:27:59.420Z,102089.05
2022-12-01T02:34:15.180Z,102089.67
2022-12-01T02:39:31.227Z,102092.74
2022-12-01T02:44:40.334Z,102085.48
2022-12-01T02:49:54.309Z,102080.15
2022-12-01T02:54:57.353Z,102078.45
2022-12-01T03:00:00.638Z,102078.26
2022-12-01T03:05:12.769Z,102081.05
2022-12-01T03:10:26.479Z,102078.13
2022-12-01T03:16:12.775Z,102074.14
2022-12-01T03:21:42.546Z,102072.06
2022-12-01T03:26:51.908Z,102072.83
2022-12-01T03:31:59.123Z,102066.86
2022-12-01T03:37:07.497Z,102061.31
2022-12-01T03:42:23.455Z,102060.87
2022-12-01T03:47:33.111Z,102060.71
2022-12-01T03:53:06.098Z,102060.33
2022-12-01T03:58:39.635Z,102059.58
2022-12-01T04:03:42.636Z,102059.27
2022-12-01T04:08:45.457Z,102057.85
2022-12-01T04:13:50.027Z,102058.35
2022-12-01T04:18:53.077Z,102053.02
2022-12-01T04:24:04.705Z,102056.93
2022-12-01T04:29:10.377Z,102056.56
2022-12-01T04:34:14.017Z,102053.41
2022-12-01T04:39:19.839Z,102052.76
2022-12-01T04:44:28.940Z,102058.71
2022-12-01T04:49:37.465Z,102060.15
2022-12-01T04:54:40.481Z,102064.70
2022-12-01T04:59:43.340Z,102065.50
2022-12-01T05:04:49.320Z,102068.05
2022-12-01T05:09:52.466Z,102072.03
2022-12-01T05:14:57.687Z,102073.39
2022-12-01T05:20:22.378Z,102073.06
2022-12-01T05:25:25.542Z,102076.08
2022-12-01T05:30:51.044Z,102076.46
2022-12-01T05:35:55.276Z,102076.48
2022-12-01T05:40:58.611Z,102076.02
2022-12-01T05:46:01.685Z,102081.30
2022-12-01T05:51:15.424Z,102077.81
2022-12-01T05:56:18.273Z,102078.63
2022-12-01T06:01:23.050Z,102082.52
2022-12-01T06:06:28.084Z,102086.30
2022-12-01T06:11:31.130Z,102083.42
2022-12-01T06:16:34.107Z,102080.91
2022-12-01T06:21:37.379Z,102078.12
2022-12-01T06:26:40.294Z,102077.57
2022-12-01T06:31:44.036Z,102075.88
2022-12-01T06:36:46.947Z,102075.58
2022-12-01T06:41:52.616Z,102080.05
2022-12-01T06:46:57.336Z,102077.50
2022-12-01T06:52:01.668Z,102080.95
2022-12-01T06:57:04.900Z,102078.98
2022-12-01T07:02:11.813Z,102082.60
2022-12-01T07:07:14.919Z,102078.48
2022-12-01T07:12:19.218Z,102074.90
2022-12-01T07:17:26.106Z,102074.83
2022-12-01T07:22:32.635Z,102073.94
2022-12-01T07:27:36.240Z,102075.91
2022-12-01T07:32:40.419Z,102077.12
2022-12-01T07:37:45.549Z,102079.84
2022-12-01T07:42:48.575Z,102077.38
2022-12-01T07:47:54.584Z,102076.95
2022-12-01T07:52:57.411Z,102077.04
2022-12-01T07:58:00.908Z,102074.84
2022-12-01T08:03:06.059Z,102080.66
2022-12-01T08:08:09.072Z,102078.63
2022-12-01T08:13:17.124Z,102081.11
2022-12-01T08:18:20.837Z,102081.50
2022-12-01T08:23:23.751Z,102085.30
2022-12-01T08:28:26.656Z,102082.83
2022-12-01T08:33:29.433Z,102086.68
2022-12-01T08:38:32.910Z,102090.38
2022-12-01T08:49:04.758Z,102096.39
2022-12-01T08:54:07.635Z,102095.52
2022-12-01T08:59:10.499Z,102099.87
2022-12-01T09:04:13.342Z,102103.70
2022-12-01T09:09:23.146Z,102104.75
2022-12-01T09:14:25.999Z,102100.98
2022-12-01T09:19:28.979Z,102096.13
2022-12-01T09:24:31.778Z,102097.00
2022-12-01T09:29:35.082Z,102097.37
2022-12-01T09:34:37.968Z,102087.80
2022-12-01T09:39:40.753Z,102091.52
2022-12-01T09:44:55.827Z,102089.55
2022-12-01T09:50:13.865Z,102087.91
2022-12-01T09:55:19.113Z,102087.86
2022-12-01T10:00:31.510Z,102081.58
2022-12-01T10:06:18.430Z,102079.71
2022-12-01T10:11:36.921Z,102074.98
2022-12-01T10:17:19.813Z,102075.66
2022-12-01T10:22:50.727Z,102072.60
2022-12-01T10:28:06.335Z,102068.55
2022-12-01T10:33:27.204Z,102064.45
2022-12-01T10:38:36.485Z,102059.52
2022-12-01T10:43:45.571Z,102060.30
2022-12-01T10:48:57.353Z,102054.84
2022-12-01T10:54:08.087Z,102049.64
2022-12-01T10:59:55.012Z,102046.05
2022-12-01T11:05:25.192Z,102039.77
2022-12-01T11:10:32.017Z,102037.20
2022-12-01T11:15:40.378Z,102037.45
2022-12-01T11:20:43.181Z,102032.55
2022-12-01T11:26:15.166Z,102032.54
2022-12-01T11:31:19.563Z,102033.38
2022-12-01T11:36:43.001Z,102031.29
2022-12-01T11:41:46.088Z,102030.73
2022-12-01T11:52:27.652Z,102021.28
2022-12-01T11:57:35.194Z,102022.36
2022-12-01T12:02:54.022Z,102022.25
2022-12-01T12:08:16.083Z,102021.92
2022-12-01T12:13:59.849Z,102023.29
2022-12-01T12:19:17.671Z,102029.75
2022-12-01T12:24:28.510Z,102026.73
2022-12-01T12:29:45.998Z,102031.18
2022-12-01T12:35:12.425Z,102030.48
2022-12-01T12:40:27.376Z,102026.39
2022-12-01T12:46:05.119Z,102024.45
2022-12-01T12:51:25.920Z,102017.82
2022-12-01T12:56:43.489Z,102017.42
2022-12-01T13:02:18.823Z,102012.52
2022-12-01T13:07:49.140Z,102015.69
2022-12-01T13:13:28.087Z,102012.70
2022-12-01T13:19:19.530Z,102006.28
2022-12-01T13:24:36.669Z,102005.20
2022-12-01T13:29:51.129Z,101999.23
2022-12-01T13:34:54.113Z,102003.21
2022-12-01T13:40:07.525Z,102003.88
2022-12-01T13:45:17.997Z,102004.42
2022-12-01T13:50:55.705Z,102004.71
2022-12-01T13:56:07.140Z,102009.19
2022-12-01T14:01:22.529Z,102011.02
2022-12-01T14:06:49.503Z,102013.71
2022-12-01T14:12:03.604Z,102011.71
2022-12-01T14:17:06.624Z,102011.52
2022-12-01T14:22:45.819Z,102020.63
2022-12-01T14:27:52.923Z,102023.05
2022-12-01T14:33:45.910Z,102023.55
2022-12-01T14:38:52.582Z,102019.59
2022-12-01T14:44:05.785Z,102021.89
2022-12-01T14:49:26.428Z,102021.13
2022-12-01T14:54:35.088Z,102023.62
2022-12-01T14:59:37.985Z,102018.13
2022-12-01T15:05:19.968Z,102016.28
2022-12-01T15:10:35.786Z,102011.85
2022-12-01T15:15:48.805Z,102011.41
2022-12-01T15:20:55.543Z,102007.95
2022-12-01T15:25:59.649Z,102007.87
2022-12-01T15:31:11.078Z,102010.76
2022-12-01T15:36:15.232Z,102009.15
2022-12-01T15:41:30.414Z,102010.09
2022-12-01T15:46:36.996Z,102008.84
2022-12-01T15:51:40.267Z,102010.32
2022-12-01T15:56:44.564Z,102016.08
2022-12-01T16:01:48.080Z,102016.64
2022-12-01T16:07:07.105Z,102021.00
2022-12-01T16:12:24.966Z,102024.57
2022-12-01T16:17:44.380Z,102031.73
2022-12-01T16:22:50.277Z,102035.92
2022-12-01T16:27:56.478Z,102038.02
2022-12-01T16:33:15.295Z,102042.38
2022-12-01T16:38:22.568Z,102048.11
2022-12-01T16:43:27.405Z,102046.58
2022-12-01T16:48:31.351Z,102047.76
2022-12-01T16:53:37.492Z,102046.22
2022-12-01T16:58:40.452Z,102042.14
2022-12-01T17:03:43.325Z,102042.08
2022-12-01T17:08:46.865Z,102037.37
2022-12-01T17:13:50.565Z,102035.21
2022-12-01T17:18:53.454Z,102035.48
2022-12-01T17:23:58.939Z,102035.04
2022-12-01T17:29:01.809Z,102032.80
2022-12-01T17:34:05.587Z,102028.58
2022-12-01T17:39:08.998Z,102028.58
2022-12-01T17:44:12.147Z,102028.19
2022-12-01T17:49:15.619Z,102028.14
2022-12-01T17:54:19.782Z,102030.19
2022-12-01T17:59:23.332Z,102030.02
2022-12-01T18:04:26.365Z,102026.27
2022-12-01T18:09:29.433Z,102024.69
2022-12-01T18:14:34.565Z,102017.20
2022-12-01T18:19:37.636Z,102019.86
2022-12-01T18:24:45.669Z,102017.99
2022-12-01T18:29:48.575Z,102014.91
2022-12-01T18:34:51.958Z,102016.20
2022-12-01T18:39:56.541Z,102019.48
2022-12-01T18:44:59.551Z,102018.32
2022-12-01T18:50:11.254Z,102018.41
2022-12-01T18:55:14.212Z,102015.30
2022-12-01T19:00:17.583Z,102015.88
2022-12-01T19:05:21.268Z,102019.08
2022-12-01T19:10:24.108Z,102022.02
2022-12-01T19:15:26.934Z,102026.42
2022-12-01T19:20:29.867Z,102035.83
2022-12-01T19:25:36.779Z,102036.95
2022-12-01T19:30:44.004Z,102031.91
2022-12-01T19:35:49.852Z,102032.25
2022-12-01T19:40:52.778Z,102034.38
2022-12-01T19:45:56.280Z,102031.75
2022-12-01T19:50:59.433Z,102028.98
2022-12-01T19:56:03.185Z,102029.52
2022-12-01T20:01:08.757Z,102027.63
2022-12-01T20:06:20.677Z,102026.63
2022-12-01T20:11:24.379Z,102023.26
2022-12-01T20:16:28.140Z,102019.23
2022-12-01T20:21:39.303Z,102017.94
2022-12-01T20:26:48.681Z,102019.61
2022-12-01T20:31:52.897Z,102017.98
2022-12-01T20:36:56.559Z,102022.94
2022-12-01T20:41:59.796Z,102019.11
2022-12-01T20:47:02.730Z,102015.02
2022-12-01T20:52:05.626Z,102018.56
2022-12-01T20:57:09.857Z,102019.57
2022-12-01T21:02:13.894Z,102021.02
2022-12-01T21:07:17.047Z,102017.48
2022-12-01T21:12:38.814Z,102017.55
2022-12-01T21:17:48.714Z,102017.30
2022-12-01T21:22:51.788Z,102015.73
2022-12-01T21:27:59.538Z,102011.03
2022-12-01T21:33:33.338Z,102008.33
2022-12-01T21:38:36.286Z,102009.70
2022-12-01T21:43:39.215Z,102011.75
2022-12-01T21:48:42.336Z,102011.36
2022-12-01T21:53:45.764Z,102013.71
2022-12-01T21:58:51.337Z,102014.27
2022-12-01T22:04:02.659Z,102011.68
2022-12-01T22:09:32.982Z,102014.34
2022-12-01T22:14:36.235Z,102019.45
2022-12-01T22:19:45.700Z,102013.89
2022-12-01T22:24:51.788Z,102010.14
2022-12-01T22:30:07.345Z,102009.13
2022-12-01T22:35:22.618Z,102002.45
2022-12-01T22:40:28.364Z,101993.51
2022-12-01T22:45:31.197Z,101990.80
2022-12-01T22:50:34.013Z,101990.30
2022-12-01T22:55:37.005Z,101989.48
2022-12-01T23:00:40.975Z,101991.11
2022-12-01T23:05:44.297Z,101989.27
2022-12-01T23:10:47.659Z,101985.66
2022-12-01T23:15:53.812Z,101982.08
2022-12-01T23:20:59.083Z,101983.95
2022-12-01T23:26:03.952Z,101983.34
2022-12-01T23:31:07.042Z,101984.45
2022-12-01T23:36:21.853Z,101990.23
2022-12-01T23:41:37.243Z,101990.31
2022-12-01T23:46:41.700Z,101990.03
2022-12-01T23:51:48.430Z,101987.70
2022-12-01T23:56:57.110Z,101983.92
